National Weather Service Raw Text Product

Displaying AFOS PIL: TAFOTM Received: 2018-04-17 09:07 UTC


706 
FTUS43 KDMX 170907 AAA
TAFOTM
TAF AMD
KOTM 170907Z 1709/1806 33007KT P6SM SCT250
      TEMPO 1711/1713 5SM BR
     FM171400 03006KT P6SM SCT250
     FM171900 08006KT P6SM SCT250
     FM180200 09011KT P6SM SCT120=